Time;durP1;ratioP1;P1;durP2;ratioP2;P2;SDS_P1;SDS_P2;PMS_P1;PMS_P2;Temp;Humidity;BMP_temperature;BMP_pressure;BME280_temperature;BME280_humidity;BME280_pressure;Samples;Min_cycle;Max_cycle;Signal;HPM_P1;HPM_P2
2022/12/08 00:01:34;;;;;;;41.10;21.02;;;;;;;7.18;87.36;100885.25;4993238;28;20419;-85
2022/12/08 00:04:00;;;;;;;36.13;19.02;;;;;;;7.30;87.38;100889.53;4980009;28;20029;-84
2022/12/08 00:09:34;;;;;;;36.67;17.67;;;;;;;7.21;88.47;100897.50;5001781;28;19921;-85
2022/12/08 00:12:08;;;;;;;40.17;18.85;;;;;;;7.05;88.90;100871.28;4997463;28;20156;-86
2022/12/08 00:14:36;;;;;;;33.28;18.27;;;;;;;6.75;88.49;100843.53;4979577;28;20042;-85
2022/12/08 00:17:04;;;;;;;41.70;19.00;;;;;;;6.89;88.57;100869.91;5002817;28;20065;-86
2022/12/08 00:19:31;;;;;;;36.85;19.77;;;;;;;6.83;88.16;100846.38;4984140;28;20034;-84
2022/12/08 00:21:58;;;;;;;42.55;18.90;;;;;;;6.96;88.00;100871.09;5009733;28;20034;-85
2022/12/08 00:24:26;;;;;;;39.08;19.17;;;;;;;6.96;89.39;100868.41;4976534;28;20433;-83
2022/12/08 00:26:51;;;;;;;40.13;19.58;;;;;;;6.92;89.63;100860.78;4990776;28;20489;-83
2022/12/08 00:29:17;;;;;;;35.47;18.55;;;;;;;7.10;89.19;100885.09;4965575;28;20034;-85
2022/12/08 00:31:44;;;;;;;39.88;18.58;;;;;;;6.97;88.69;100862.06;4979030;28;20041;-84
2022/12/08 00:34:14;;;;;;;34.00;17.58;;;;;;;6.85;88.02;100840.91;4998827;28;20552;-84
2022/12/08 00:36:43;;;;;;;33.45;17.67;;;;;;;7.00;87.77;100873.47;5004285;28;20102;-83
2022/12/08 00:39:13;;;;;;;35.08;17.13;;;;;;;7.01;88.19;100884.06;4999775;28;20034;-84
2022/12/08 00:44:25;;;;;;;34.42;18.13;;;;;;;6.84;88.30;100882.84;5001159;28;20041;-85
2022/12/08 00:46:54;;;;;;;34.20;17.55;;;;;;;6.75;88.64;100875.59;4985225;28;20091;-84
2022/12/08 00:49:20;;;;;;;37.17;17.55;;;;;;;6.78;87.96;100861.97;5000574;28;20043;-85
2022/12/08 00:51:46;;;;;;;33.13;17.20;;;;;;;7.06;88.54;100897.03;4970718;28;20042;-85
2022/12/08 00:54:12;;;;;;;35.70;17.05;;;;;;;6.79;88.66;100847.66;4989381;28;20030;-86
2022/12/08 00:56:38;;;;;;;31.48;16.23;;;;;;;7.00;89.02;100868.13;5010157;28;20033;-84
2022/12/08 00:59:05;;;;;;;35.40;17.17;;;;;;;7.01;88.85;100884.06;4988176;28;20022;-85
2022/12/08 01:01:31;;;;;;;36.08;17.45;;;;;;;6.89;89.42;100877.94;4994657;28;20041;-84
2022/12/08 01:03:57;;;;;;;34.22;16.58;;;;;;;6.86;89.38;100851.47;4958073;28;20038;-84
2022/12/08 01:06:22;;;;;;;30.88;15.57;;;;;;;7.07;88.45;100878.19;5010066;28;20045;-85
2022/12/08 01:08:48;;;;;;;30.77;16.20;;;;;;;7.11;88.27;100886.78;5007701;28;20446;-85
2022/12/08 01:11:17;;;;;;;33.20;15.25;;;;;;;7.03;88.40;100882.09;4990438;28;20057;-85
2022/12/08 01:13:42;;;;;;;35.72;15.82;;;;;;;7.20;89.33;100880.63;4974395;28;20031;-82
2022/12/08 01:16:08;;;;;;;32.67;16.42;;;;;;;7.08;88.64;100863.81;4981461;28;20065;-83
2022/12/08 01:18:34;;;;;;;32.30;15.32;;;;;;;7.12;88.49;100880.47;5014014;28;20535;-84
2022/12/08 01:21:05;;;;;;;32.47;16.15;;;;;;;7.09;88.35;100889.56;4998825;28;20049;-84
2022/12/08 01:23:32;;;;;;;31.90;15.65;;;;;;;6.73;88.31;100849.00;5005886;28;20046;-84
2022/12/08 01:26:04;;;;;;;30.50;15.43;;;;;;;6.87;88.67;100887.91;5008894;28;20084;-83
2022/12/08 01:28:31;;;;;;;32.22;15.93;;;;;;;6.82;88.20;100858.06;5009507;28;20037;-86
2022/12/08 01:30:58;;;;;;;30.60;15.20;;;;;;;6.84;87.38;100844.59;5012305;28;20041;-83
2022/12/08 01:33:24;;;;;;;30.38;15.00;;;;;;;7.06;87.05;100883.66;5008986;28;20034;-84
2022/12/08 01:35:51;;;;;;;30.02;14.88;;;;;;;6.85;86.94;100868.47;4993899;28;20118;-83
2022/12/08 01:38:17;;;;;;;30.00;15.18;;;;;;;6.84;87.80;100866.81;4976363;28;20071;-83
2022/12/08 01:40:45;;;;;;;32.85;14.55;;;;;;;6.84;87.19;100845.41;4974474;28;20064;-84
2022/12/08 01:43:15;;;;;;;34.25;15.45;;;;;;;6.83;87.19;100865.09;5001776;28;20192;-83
2022/12/08 01:45:42;;;;;;;31.85;15.02;;;;;;;6.82;87.63;100855.38;4971154;28;20046;-83
2022/12/08 01:48:11;;;;;;;31.95;15.45;;;;;;;6.84;87.78;100866.81;5003807;28;20041;-84
2022/12/08 01:50:37;;;;;;;32.78;15.48;;;;;;;6.73;88.20;100848.16;5010288;28;20138;-84
2022/12/08 01:53:11;;;;;;;;;;;;;;;6.91;87.66;100867.13;4970258;28;20039;-83
2022/12/08 01:56:14;;;;;;;32.78;14.52;;;;;;;6.89;87.33;100867.25;4998442;28;19921;-84
2022/12/08 01:58:47;;;;;;;28.85;14.75;;;;;;;6.88;87.34;100878.06;4894873;29;20040;-83
2022/12/08 02:01:15;;;;;;;32.40;14.70;;;;;;;6.84;87.19;100865.97;4986607;28;20038;-83
2022/12/08 02:03:51;;;;;;;28.95;14.25;;;;;;;6.92;86.92;100866.97;4968485;28;20107;-84
2022/12/08 02:06:19;;;;;;;28.63;14.68;;;;;;;6.75;87.10;100846.22;4978285;28;20165;-83
2022/12/08 02:08:46;;;;;;;29.98;15.38;;;;;;;6.70;87.24;100840.41;4988126;28;20049;-84
2022/12/08 02:11:11;;;;;;;30.40;15.20;;;;;;;6.86;87.49;100867.53;4973824;28;20501;-84
2022/12/08 02:13:40;;;;;;;35.55;15.95;;;;;;;6.96;87.85;100871.09;4984949;28;20124;-84
2022/12/08 02:16:39;;;;;;;35.17;16.00;;;;;;;6.90;87.85;100882.28;4983569;28;20038;-85
2022/12/08 02:19:23;;;;;;;28.88;14.50;;;;;;;6.88;88.23;100878.06;5002105;28;20121;-83
2022/12/08 02:22:00;;;;;;;31.05;15.57;;;;;;;6.73;88.57;100869.53;5004495;28;20045;-85
2022/12/08 02:24:37;;;;;;;40.70;16.95;;;;;;;6.77;89.55;100870.97;4987595;28;20113;-84
2022/12/08 02:27:25;;;;;;;30.77;15.40;;;;;;;6.89;88.78;100877.09;5007043;28;20042;-84
2022/12/08 02:30:09;;;;;;;29.83;15.20;;;;;;;6.67;88.38;100844.19;4987267;28;20379;-84
2022/12/08 02:33:00;;;;;;;31.70;15.50;;;;;;;6.74;87.92;100865.88;4984215;28;20123;-83
2022/12/08 02:35:48;;;;;;;34.38;15.73;;;;;;;6.83;88.84;100878.44;4985414;28;20443;-85
2022/12/08 02:38:35;;;;;;;36.03;17.02;;;;;;;6.80;88.73;100884.06;4985240;28;20049;-83
2022/12/08 02:41:17;;;;;;;33.83;17.10;;;;;;;6.76;89.00;100885.31;4997458;28;20069;-85
2022/12/08 02:43:47;;;;;;;33.20;16.38;;;;;;;6.74;88.78;100882.78;4983812;28;20184;-84
2022/12/08 02:46:30;;;;;;;28.33;15.52;;;;;;;6.77;87.93;100887.00;4979766;28;20191;-85
2022/12/08 02:48:55;;;;;;;29.83;15.48;;;;;;;6.78;87.85;100888.69;4988210;28;20395;-83
2022/12/08 02:51:22;;;;;;;32.50;15.43;;;;;;;6.60;88.01;100869.72;4978463;28;20034;-84
2022/12/08 02:53:48;;;;;;;29.75;15.73;;;;;;;6.73;87.83;100880.22;4991776;28;20088;-85
2022/12/08 02:56:26;;;;;;;31.50;15.48;;;;;;;6.75;87.50;100886.28;4999788;28;20030;-82
2022/12/08 02:59:07;;;;;;;29.42;14.77;;;;;;;6.67;87.34;100867.38;5004878;28;20026;-83
2022/12/08 03:01:39;;;;;;;28.30;14.70;;;;;;;6.77;87.68;100897.69;4999990;28;20527;-84
2022/12/08 03:04:16;;;;;;;32.72;15.40;;;;;;;6.83;87.86;100888.31;4979564;28;20038;-84
2022/12/08 03:06:46;;;;;;;28.08;15.10;;;;;;;6.85;87.84;100889.03;4997381;28;20085;-85
2022/12/08 03:09:17;;;;;;;32.65;15.52;;;;;;;6.76;89.25;100896.00;4999945;28;20125;-82
2022/12/08 03:11:58;;;;;;;38.45;16.52;;;;;;;6.52;90.05;100858.84;4993695;28;20121;-84
2022/12/08 03:14:23;;;;;;;33.58;16.77;;;;;;;6.63;89.83;100879.31;4951835;28;20045;-84
2022/12/08 03:16:50;;;;;;;31.15;16.48;;;;;;;6.61;89.47;100881.28;4963339;28;20061;-84
2022/12/08 03:19:20;;;;;;;32.85;16.15;;;;;;;6.75;88.91;100905.84;4954092;28;20065;-83
2022/12/08 03:21:47;;;;;;;30.38;15.93;;;;;;;6.70;88.50;100885.84;4983764;28;20419;-83
2022/12/08 03:24:15;;;;;;;30.55;16.45;;;;;;;6.83;87.72;100902.50;4981766;28;20046;-83
2022/12/08 03:26:47;;;;;;;31.35;15.65;;;;;;;6.84;87.81;100904.22;4993283;28;20455;-83
2022/12/08 03:29:13;;;;;;;30.58;15.57;;;;;;;6.86;87.19;100906.75;4974415;28;20041;-83
2022/12/08 03:31:42;;;;;;;30.55;15.15;;;;;;;6.61;87.04;100866.09;4989048;28;20042;-83
2022/12/08 03:34:10;;;;;;;30.55;15.20;;;;;;;6.79;87.30;100885.06;4968565;28;20683;-83
2022/12/08 03:36:36;;;;;;;25.95;14.77;;;;;;;6.74;87.37;100881.91;4973019;28;20045;-83
2022/12/08 03:39:02;;;;;;;29.42;15.15;;;;;;;6.88;87.31;100905.66;4984337;28;20037;-84
2022/12/08 03:41:29;;;;;;;29.65;14.57;;;;;;;6.70;87.75;100892.03;4988139;28;20360;-84
2022/12/08 03:43:57;;;;;;;33.50;15.73;;;;;;;6.79;87.67;100901.09;4980834;28;20052;-85
2022/12/08 03:46:26;;;;;;;29.13;15.05;;;;;;;6.70;88.53;100904.53;5011959;28;20050;-84
2022/12/08 03:48:52;;;;;;;31.15;15.30;;;;;;;6.87;88.41;100911.97;4993325;28;20038;-83
2022/12/08 03:51:17;;;;;;;30.30;14.80;;;;;;;6.72;88.18;100899.91;5003047;28;20076;-80
2022/12/08 03:53:43;;;;;;;28.42;14.30;;;;;;;6.81;88.14;100899.13;4982362;28;20046;-85
2022/12/08 03:56:30;;;;;;;32.55;14.60;;;;;;;6.80;nan;100899.25;4979415;28;20035;-85
2022/12/08 03:58:55;;;;;;;27.15;15.15;;;;;;;6.74;87.25;100893.47;4964569;28;20069;-85
2022/12/08 04:01:21;;;;;;;28.25;15.07;;;;;;;6.82;87.29;100903.50;4972293;28;20038;-84
2022/12/08 04:03:48;;;;;;;31.70;16.15;;;;;;;6.94;86.77;100910.47;4997330;28;20133;-84
2022/12/08 04:06:13;;;;;;;30.88;16.35;;;;;;;6.73;86.65;100893.59;4976601;28;20042;-85
2022/12/08 04:08:39;;;;;;;30.95;16.48;;;;;;;6.75;86.71;100916.53;4981585;28;20075;-84
2022/12/08 04:11:06;;;;;;;30.83;17.25;;;;;;;6.70;86.78;100889.34;4960649;28;20406;-85
2022/12/08 04:13:33;;;;;;;34.42;17.85;;;;;;;6.86;86.96;100929.00;4985764;28;20037;-84
2022/12/08 04:15:58;;;;;;;34.65;18.05;;;;;;;6.80;86.73;100910.78;5011626;28;20037;-84
2022/12/08 04:18:24;;;;;;;34.38;17.92;;;;;;;6.74;86.34;100901.50;5005137;28;20442;-84
2022/12/08 04:20:51;;;;;;;30.40;17.42;;;;;;;6.76;86.54;100902.19;5009772;28;20033;-83
2022/12/08 04:23:16;;;;;;;32.92;17.27;;;;;;;6.71;87.49;100932.94;4974060;28;20117;-83
2022/12/08 04:25:42;;;;;;;33.65;17.73;;;;;;;6.70;87.05;100912.56;5006677;28;20034;-82
2022/12/08 04:28:07;;;;;;;32.92;18.83;;;;;;;6.59;87.17;100894.75;4988940;28;20426;-84
2022/12/08 04:30:33;;;;;;;30.92;17.52;;;;;;;6.70;86.83;100909.88;4989321;28;20085;-86
2022/12/08 04:32:59;;;;;;;32.15;17.38;;;;;;;6.83;86.87;100923.88;4989626;28;20026;-84
2022/12/08 04:35:26;;;;;;;31.83;17.33;;;;;;;6.94;86.88;100931.00;4993895;28;20033;-84
2022/12/08 04:37:52;;;;;;;28.55;16.40;;;;;;;6.95;87.16;100944.25;4964856;28;20509;-85
2022/12/08 04:40:18;;;;;;;30.90;16.58;;;;;;;6.83;87.15;100907.00;4989129;28;20113;-86
2022/12/08 04:42:43;;;;;;;34.63;16.63;;;;;;;6.90;86.85;100917.03;4972611;28;20068;-86
2022/12/08 04:45:09;;;;;;;32.10;16.92;;;;;;;7.01;86.59;100932.16;4975454;28;20129;-87
2022/12/08 04:47:36;;;;;;;31.35;16.95;;;;;;;7.03;85.81;100921.34;4973439;28;20106;-85
2022/12/08 04:50:05;;;;;;;32.13;17.05;;;;;;;7.03;85.76;100932.06;4994704;28;20065;-86
2022/12/08 04:52:30;;;;;;;32.13;18.55;;;;;;;6.97;85.80;100934.25;4993565;28;20030;-85
2022/12/08 04:54:56;;;;;;;36.33;18.42;;;;;;;6.92;85.45;100930.28;4962501;28;20076;-84
2022/12/08 04:57:23;;;;;;;36.03;18.17;;;;;;;7.01;85.46;100955.41;4988532;28;20064;-85
2022/12/08 04:59:51;;;;;;;33.70;18.50;;;;;;;7.00;85.57;100956.34;5003510;28;20084;-84
2022/12/08 05:02:18;;;;;;;41.80;19.70;;;;;;;6.89;84.91;100947.44;5001668;28;20044;-85
2022/12/08 05:04:45;;;;;;;32.13;19.15;;;;;;;6.95;84.82;100949.59;4967898;28;20061;-86
2022/12/08 05:07:10;;;;;;;71.50;34.85;;;;;;;6.89;84.60;100955.44;4965363;28;20050;-86
2022/12/08 05:09:36;;;;;;;59.30;31.30;;;;;;;6.71;84.12;100938.28;4966141;28;20116;-86
2022/12/08 05:12:02;;;;;;;47.10;25.95;;;;;;;6.66;83.62;100932.50;4970992;28;20042;-85
2022/12/08 05:14:27;;;;;;;44.70;25.25;;;;;;;6.80;83.50;100966.91;4981964;28;20057;-85
2022/12/08 05:16:53;;;;;;;45.90;24.38;;;;;;;6.62;83.43;100945.25;4962780;28;20056;-84
2022/12/08 05:19:22;;;;;;;43.17;24.75;;;;;;;6.74;83.21;100962.94;4978181;28;20100;-86
2022/12/08 05:21:49;;;;;;;46.60;24.17;;;;;;;6.57;82.86;100934.09;4996813;28;20466;-84
2022/12/08 05:24:14;;;;;;;44.90;23.63;;;;;;;6.53;82.76;100933.53;5004664;28;20183;-83
2022/12/08 05:26:40;;;;;;;44.25;23.10;;;;;;;6.69;82.84;100969.63;4996024;28;20483;-84
2022/12/08 05:29:07;;;;;;;40.88;22.25;;;;;;;6.63;82.89;100960.31;4983169;28;21006;-85
2022/12/08 05:31:32;;;;;;;45.63;22.42;;;;;;;6.59;82.49;100961.53;4985723;28;20034;-83
2022/12/08 05:33:58;;;;;;;42.05;22.63;;;;;;;6.58;82.61;100964.34;4990569;28;20061;-84
2022/12/08 05:36:24;;;;;;;47.88;23.48;;;;;;;6.42;83.05;100952.25;4990273;28;20099;-86
2022/12/08 05:38:50;;;;;;;40.53;22.30;;;;;;;6.50;83.06;100976.50;4981872;28;20037;-86
2022/12/08 05:41:17;;;;;;;39.80;22.95;;;;;;;6.54;83.58;100987.78;5009498;28;20034;-85
2022/12/08 05:43:43;;;;;;;41.20;22.85;;;;;;;6.46;83.37;100974.22;5002851;28;20088;-84
2022/12/08 05:46:09;;;;;;;57.20;28.10;;;;;;;6.60;83.28;101002.47;4986824;28;20128;-85
2022/12/08 05:48:34;;;;;;;44.75;23.27;;;;;;;6.51;83.61;100999.59;4971238;28;20065;-84
2022/12/08 05:51:00;;;;;;;49.67;23.23;;;;;;;6.48;83.46;100967.75;4986113;28;20033;-85
2022/12/08 05:53:26;;;;;;;43.40;24.08;;;;;;;6.58;83.02;100989.25;4984347;28;20451;-85
2022/12/08 05:55:51;;;;;;;38.35;22.95;;;;;;;6.69;83.51;101007.03;4987212;28;20103;-85
2022/12/08 05:58:19;;;;;;;40.83;21.42;;;;;;;6.70;83.90;100990.06;5006716;28;20132;-85
2022/12/08 06:00:45;;;;;;;45.65;22.98;;;;;;;6.87;83.94;101010.00;4975744;28;20049;-87
2022/12/08 06:03:13;;;;;;;50.25;24.02;;;;;;;6.87;83.88;100997.50;4985101;28;20042;-85
2022/12/08 06:05:44;;;;;;;47.08;24.13;;;;;;;6.87;83.64;101016.19;4986988;28;20053;-85
2022/12/08 06:08:11;;;;;;;42.78;22.88;;;;;;;6.86;83.58;101003.81;4969696;28;20061;-87
2022/12/08 06:10:38;;;;;;;45.78;21.90;;;;;;;6.84;83.75;101015.63;4986065;28;20049;-85
2022/12/08 06:13:04;;;;;;;40.13;21.35;;;;;;;6.97;83.81;101027.81;5002771;28;20034;-88
2022/12/08 06:15:30;;;;;;;41.78;22.40;;;;;;;6.78;83.83;100987.56;4988702;28;20504;-87
2022/12/08 06:17:56;;;;;;;47.15;25.92;;;;;;;6.94;84.17;101021.88;4986831;28;20034;-87
2022/12/08 06:20:23;;;;;;;51.85;23.73;;;;;;;7.01;84.08;101019.56;5012913;28;20052;-86
2022/12/08 06:22:54;;;;;;;53.35;22.85;;;;;;;7.04;83.93;101027.31;4974369;28;20038;-85
2022/12/08 06:25:20;;;;;;;41.63;22.90;;;;;;;7.07;83.70;101005.66;5006307;28;20038;-84
2022/12/08 06:27:47;;;;;;;48.65;22.50;;;;;;;7.21;83.49;101031.22;4987961;28;20060;-85
2022/12/08 06:30:13;;;;;;;51.00;22.48;;;;;;;7.25;83.07;101025.47;4991819;28;20037;-85
2022/12/08 06:32:39;;;;;;;46.95;24.42;;;;;;;7.26;83.00;101032.53;4998375;28;20184;-85
2022/12/08 06:35:09;;;;;;;59.63;24.42;;;;;;;7.43;82.78;101031.09;5002424;28;20434;-86
2022/12/08 06:37:35;;;;;;;53.35;26.02;;;;;;;7.43;82.59;101035.59;4971460;28;20045;-85
2022/12/08 06:40:00;;;;;;;48.33;25.77;;;;;;;7.46;81.89;101008.59;4989742;28;20027;-85
2022/12/08 06:42:45;;;;;;;50.17;26.52;;;;;;;7.84;81.39;101029.31;4988141;28;20034;-85
2022/12/08 06:45:13;;;;;;;55.33;28.37;;;;;;;7.92;80.84;101007.25;4988123;28;20444;-84
2022/12/08 06:47:38;;;;;;;66.10;32.25;;;;;;;8.44;80.31;101040.97;4971409;28;20486;-84
2022/12/08 06:50:05;;;;;;;58.50;31.00;;;;;;;8.73;79.20;101029.44;4980490;28;20058;-85
2022/12/08 06:52:30;;;;;;;;;;;;;;;8.91;78.96;101037.66;5002410;28;20022;-83
2022/12/08 06:54:56;;;;;;;60.58;32.30;;;;;;;9.01;78.00;101035.84;5002677;28;19909;-84
2022/12/08 06:57:23;;;;;;;61.33;29.75;;;;;;;9.10;77.25;101052.88;4958524;28;20033;-85
2022/12/08 06:59:49;;;;;;;50.85;24.50;;;;;;;9.15;76.91;101028.31;4977446;28;20461;-84
2022/12/08 07:02:16;;;;;;;55.28;24.58;;;;;;;9.44;74.91;101049.75;4989725;28;20038;-86
2022/12/08 07:04:41;;;;;;;63.13;26.95;;;;;;;9.30;74.48;101054.56;4972992;28;20038;-85
2022/12/08 07:07:07;;;;;;;50.63;27.27;;;;;;;9.34;73.95;101022.94;4984462;28;20041;-86
2022/12/08 07:09:35;;;;;;;60.65;27.05;;;;;;;9.53;73.13;101032.78;4965933;28;20455;-84
2022/12/08 07:12:03;;;;;;;49.40;25.55;;;;;;;9.60;71.77;101052.69;4966719;28;20050;-86
2022/12/08 07:14:30;;;;;;;55.75;25.83;;;;;;;10.71;69.43;101045.53;5003404;28;20342;-86
2022/12/08 07:16:56;;;;;;;48.65;23.10;;;;;;;12.10;64.03;101032.28;4992850;28;20165;-85
2022/12/08 07:19:21;;;;;;;51.53;23.05;;;;;;;13.02;60.96;101032.34;4968241;28;20066;-86
2022/12/08 07:21:48;;;;;;;39.92;22.45;;;;;;;14.05;55.51;101013.63;4991765;28;20057;-89
2022/12/08 07:24:17;;;;;;;39.65;23.42;;;;;;;14.78;54.67;101011.59;4976543;28;20029;-88
2022/12/08 07:26:43;;;;;;;39.63;22.92;;;;;;;15.68;50.80;101031.63;4990096;28;20418;-87
2022/12/08 07:29:10;;;;;;;47.13;22.05;;;;;;;15.85;48.69;101021.47;4984834;28;20049;-86
2022/12/08 07:31:37;;;;;;;43.88;21.90;;;;;;;16.12;48.13;101004.53;5016363;28;20052;-86
2022/12/08 07:34:02;;;;;;;42.10;21.17;;;;;;;17.06;46.43;101037.13;5017396;28;20402;-87
2022/12/08 07:36:28;;;;;;;;;;;;;;;17.92;43.82;101039.72;4967823;28;20030;-85
2022/12/08 07:38:53;;;;;;;40.45;22.10;;;;;;;18.79;43.32;101042.81;5010362;28;19992;-83
2022/12/08 07:41:21;;;;;;;;;;;;;;;19.70;41.09;101033.28;4995416;28;20109;-87
2022/12/08 07:43:46;;;;;;;40.72;21.67;;;;;;;20.45;39.07;101009.91;5017026;28;19923;-86
2022/12/08 07:46:17;;;;;;;47.22;21.88;;;;;;;21.05;37.63;101020.53;5016539;28;20417;-87
2022/12/08 07:48:43;;;;;;;47.28;24.02;;;;;;;21.20;36.71;101036.59;5018733;28;20431;-83
2022/12/08 07:51:09;;;;;;;49.80;23.88;;;;;;;21.51;35.63;101013.00;5008688;28;20115;-85
2022/12/08 07:53:35;;;;;;;36.88;24.23;;;;;;;22.07;34.87;101020.19;4989680;28;20093;-85
2022/12/08 07:56:04;;;;;;;43.60;24.23;;;;;;;22.43;33.85;101045.94;4965065;28;20046;-86
2022/12/08 07:58:31;;;;;;;42.90;25.65;;;;;;;22.66;33.43;101016.97;4991020;28;20097;-87
2022/12/08 08:00:57;;;;;;;45.03;24.60;;;;;;;22.48;33.10;101015.94;4983636;28;20326;-88
2022/12/08 08:03:22;;;;;;;50.10;26.17;;;;;;;23.14;32.79;101016.91;5009420;28;20038;-85
2022/12/08 08:05:49;;;;;;;49.60;26.40;;;;;;;23.92;31.44;101023.16;4991600;28;20045;-84
2022/12/08 08:08:16;;;;;;;44.95;27.20;;;;;;;24.38;30.48;101015.06;5004878;28;20081;-86
2022/12/08 08:10:42;;;;;;;56.88;28.92;;;;;;;25.08;29.39;101030.41;4982877;28;20046;-87
2022/12/08 08:13:08;;;;;;;52.80;29.95;;;;;;;25.77;29.31;101038.41;4986203;28;20064;-87
2022/12/08 08:15:33;;;;;;;57.63;30.77;;;;;;;26.44;28.18;101053.94;5011911;28;20042;-85
2022/12/08 08:17:59;;;;;;;50.63;31.77;;;;;;;26.59;27.69;101060.75;4979798;28;20065;-87
2022/12/08 08:20:25;;;;;;;52.80;34.10;;;;;;;26.63;27.26;101023.31;5007641;28;20037;-86
2022/12/08 08:22:51;;;;;;;51.72;34.00;;;;;;;26.81;26.63;101060.69;4990519;28;20157;-86
2022/12/08 08:25:17;;;;;;;50.92;33.03;;;;;;;25.47;27.76;101056.16;5008369;28;20038;-87
2022/12/08 08:27:43;;;;;;;45.97;32.17;;;;;;;23.08;31.52;101060.88;4988695;28;20561;-86
2022/12/08 08:30:10;;;;;;;51.08;32.80;;;;;;;20.79;34.88;101065.25;4991707;28;20052;-88
2022/12/08 08:32:35;;;;;;;52.47;33.45;;;;;;;19.13;38.34;101065.53;4976411;28;20042;-87
2022/12/08 08:35:01;;;;;;;57.25;33.85;;;;;;;17.47;41.80;101060.91;4991164;28;20041;-87
2022/12/08 08:37:27;;;;;;;50.60;32.90;;;;;;;16.46;44.74;101069.03;4974353;28;20042;-86
2022/12/08 08:39:52;;;;;;;;;;;;;;;15.15;47.69;101081.19;4989420;28;20057;-87
2022/12/08 08:42:18;;;;;;;53.03;31.63;;;;;;;14.48;49.10;101034.91;4991084;28;19975;-86
2022/12/08 08:44:45;;;;;;;;;;;;;;;14.36;50.76;101080.44;4973109;28;20041;-87
2022/12/08 08:47:10;;;;;;;55.10;31.00;;;;;;;13.51;53.38;101081.00;5004153;28;19925;-88
2022/12/08 08:49:37;;;;;;;65.60;32.97;;;;;;;13.00;54.90;101077.56;4985211;28;20377;-86
2022/12/08 08:52:06;;;;;;;58.25;31.50;;;;;;;12.48;56.88;101067.84;5004219;28;20063;-87
2022/12/08 08:54:33;;;;;;;65.88;32.17;;;;;;;12.10;58.24;101066.47;5009366;28;20109;-87
2022/12/08 08:57:00;;;;;;;71.18;33.50;;;;;;;11.77;59.62;101082.41;4980581;28;20038;-85
2022/12/08 08:59:27;;;;;;;66.28;32.60;;;;;;;11.31;61.23;101063.75;4964048;28;20034;-85
2022/12/08 09:01:55;;;;;;;58.05;30.15;;;;;;;10.94;62.82;101066.63;5013185;28;20049;-87
2022/12/08 09:04:21;;;;;;;47.63;26.52;;;;;;;10.70;63.19;101043.88;4992409;28;20038;-87
2022/12/08 09:06:49;;;;;;;49.90;27.40;;;;;;;10.55;65.05;101064.19;5006924;28;20463;-87
2022/12/08 09:09:15;;;;;;;53.50;27.65;;;;;;;10.75;64.97;101049.63;4997149;28;20049;-87
2022/12/08 09:11:56;;;;;;;52.15;26.80;;;;;;;10.61;64.79;101019.75;5014518;28;20037;-84
2022/12/08 09:14:26;;;;;;;56.30;25.85;;;;;;;10.52;65.70;101041.16;4982109;28;20039;-87
2022/12/08 09:16:52;;;;;;;49.10;26.38;;;;;;;10.48;66.40;101055.03;5012219;28;20501;-81
2022/12/08 09:19:20;;;;;;;46.97;25.98;;;;;;;10.52;66.41;101035.78;4983447;28;20100;-85
2022/12/08 09:21:49;;;;;;;57.60;27.05;;;;;;;10.55;66.44;101050.75;4991875;28;20041;-85
2022/12/08 09:24:18;;;;;;;57.15;26.80;;;;;;;10.27;67.07;101009.59;4971390;28;20502;-83
2022/12/08 09:26:43;;;;;;;58.70;27.42;;;;;;;10.60;66.87;101020.72;4975563;28;20045;-87
2022/12/08 09:29:10;;;;;;;59.33;27.15;;;;;;;10.68;66.61;101015.44;4985357;28;20034;-83
2022/12/08 09:31:35;;;;;;;59.88;28.63;;;;;;;10.93;66.16;101021.88;4969953;28;20101;-84
2022/12/08 09:34:02;;;;;;;68.38;29.20;;;;;;;10.99;65.68;101007.81;4965400;28;20057;-84
2022/12/08 09:36:28;;;;;;;66.43;28.08;;;;;;;11.00;65.54;100982.59;4981519;28;20030;-85
2022/12/08 09:38:54;;;;;;;65.47;29.27;;;;;;;11.13;65.99;101020.72;5006259;28;20040;-83
2022/12/08 09:41:28;;;;;;;61.80;29.70;;;;;;;11.07;65.93;101010.56;4975041;28;20144;-84
2022/12/08 09:44:12;;;;;;;68.95;29.45;;;;;;;11.42;65.78;101030.34;4985962;28;20030;-82
2022/12/08 09:46:37;;;;;;;79.45;30.38;;;;;;;11.47;65.58;101022.66;5002310;28;20080;-86
2022/12/08 09:49:04;;;;;;;72.10;29.70;;;;;;;11.39;65.27;100980.34;4986835;28;20061;-91
2022/12/08 09:51:35;;;;;;;62.15;28.58;;;;;;;11.81;64.71;101017.28;4989943;28;20029;-90
2022/12/08 09:54:31;;;;;;;67.93;29.27;;;;;;;11.97;64.57;101026.50;4984540;28;20541;-91
2022/12/08 09:57:09;;;;;;;;;;;;;;;12.17;64.39;101019.00;4991749;28;20754;-92
2022/12/08 09:59:34;;;;;;;53.42;26.40;;;;;;;12.28;63.90;100996.31;5007963;28;19996;-93
2022/12/08 10:02:11;;;;;;;66.50;29.23;;;;;;;12.45;63.14;100996.19;4986013;28;20069;-89
2022/12/08 10:04:37;;;;;;;61.42;28.60;;;;;;;12.78;62.60;101016.97;4993200;28;20037;-93
2022/12/08 10:07:16;;;;;;;69.65;30.13;;;;;;;12.70;62.57;100993.53;4974603;28;20167;-92
2022/12/08 10:10:26;;;;;;;63.78;29.45;;;;;;;12.97;62.14;101018.50;4988312;28;20057;-91
2022/12/08 10:13:24;;;;;;;66.57;31.02;;;;;;;12.95;62.22;101009.75;5013710;28;20061;-90
2022/12/08 10:16:09;;;;;;;77.65;31.92;;;;;;;13.18;61.90;101010.75;4988064;28;20328;-91
2022/12/08 10:18:36;;;;;;;69.70;31.85;;;;;;;13.36;61.66;100999.78;5022018;28;20041;-92
2022/12/08 10:21:17;;;;;;;65.05;32.10;;;;;;;13.48;61.27;100993.00;4993823;28;20164;-91
2022/12/08 10:24:12;;;;;;;74.65;31.70;;;;;;;13.90;60.23;100988.34;5004472;28;20088;-89
2022/12/08 10:26:40;;;;;;;72.85;31.50;;;;;;;14.18;59.68;100996.00;5013686;28;20045;-88
2022/12/08 10:29:10;;;;;;;68.28;31.83;;;;;;;14.38;58.82;100980.19;5018948;28;20030;-85
2022/12/08 10:31:38;;;;;;;74.63;31.15;;;;;;;14.43;58.68;100986.75;4985603;28;20100;-89
2022/12/08 10:34:18;;;;;;;76.93;34.67;;;;;;;15.15;57.13;100983.69;4987207;28;20041;-89
2022/12/08 10:36:52;;;;;;;75.18;32.40;;;;;;;15.64;55.43;100976.94;4986609;28;20542;-88
2022/12/08 10:39:33;;;;;;;58.38;30.58;;;;;;;15.66;55.10;100984.88;4977938;28;20386;-91
2022/12/08 10:42:10;;;;;;;64.95;31.85;;;;;;;15.46;55.23;100969.19;4987436;28;20101;-90
2022/12/08 10:44:51;;;;;;;70.57;31.40;;;;;;;15.55;55.49;100983.50;5005124;28;20046;-90
2022/12/08 10:47:20;;;;;;;68.15;31.75;;;;;;;15.52;55.65;100975.72;5005254;28;20042;-88
2022/12/08 10:49:46;;;;;;;68.80;31.80;;;;;;;15.40;55.23;100981.59;4963074;28;20062;-89
2022/12/08 10:52:24;;;;;;;71.32;32.83;;;;;;;15.25;55.69;100967.19;4989506;28;20058;-89
2022/12/08 10:54:54;;;;;;;76.47;36.60;;;;;;;15.07;56.13;100964.81;4993668;28;20057;-89
2022/12/08 10:57:22;;;;;;;76.57;38.83;;;;;;;15.54;55.35;100979.91;5009491;28;20442;-90
2022/12/08 10:59:49;;;;;;;90.05;41.03;;;;;;;16.09;53.54;100952.56;4967136;28;20609;-90
2022/12/08 11:02:17;;;;;;;73.15;38.10;;;;;;;16.76;52.15;100949.50;4977121;28;20081;-89
2022/12/08 11:04:46;;;;;;;79.35;38.83;;;;;;;17.21;51.32;100963.72;4976872;28;20549;-89
2022/12/08 11:07:19;;;;;;;72.07;35.75;;;;;;;18.01;49.34;100928.03;4992561;28;20423;-89
2022/12/08 11:09:47;;;;;;;63.08;35.42;;;;;;;19.21;46.71;100941.84;4989174;28;20483;-91
2022/12/08 11:12:22;;;;;;;71.68;35.88;;;;;;;20.29;44.06;100944.88;4978305;28;20192;-90
2022/12/08 11:14:54;;;;;;;74.60;39.17;;;;;;;20.99;41.41;100925.75;5011399;28;20053;-89
2022/12/08 11:17:34;;;;;;;69.15;38.08;;;;;;;21.59;40.53;100944.34;4981380;28;20841;-89
2022/12/08 11:20:17;;;;;;;83.15;40.70;;;;;;;21.59;40.12;100938.88;5011440;28;20172;-91
2022/12/08 11:22:47;;;;;;;74.72;42.47;;;;;;;21.27;40.32;100938.94;5014082;28;20036;-90
2022/12/08 11:25:13;;;;;;;62.90;32.47;;;;;;;20.60;41.49;100935.06;5015719;28;20038;-92
2022/12/08 13:12:23;;;;;;;35.05;19.63;;;;;;;13.33;64.78;100902.94;5957413;22;5284214;-87
2022/12/08 13:14:49;;;;;;;32.90;18.83;;;;;;;13.37;65.34;100911.50;6154112;23;20017;-86
2022/12/08 13:17:29;;;;;;;38.03;18.77;;;;;;;12.96;66.46;100903.47;6124798;23;20009;-88